createdAt,value
2022-12-17T00:11:13.591Z,0
2022-12-17T00:25:13.556Z,0
2022-12-17T00:39:13.557Z,0
2022-12-17T00:53:13.575Z,0
2022-12-17T01:07:13.569Z,0
2022-12-17T01:21:13.585Z,0
2022-12-17T01:35:13.588Z,0
2022-12-17T01:49:13.580Z,0
2022-12-17T02:03:13.712Z,0
2022-12-17T02:17:13.609Z,0
2022-12-17T02:31:13.641Z,0
2022-12-17T02:45:13.634Z,0
2022-12-17T02:59:13.633Z,0
2022-12-17T03:13:13.666Z,0
2022-12-17T03:27:13.644Z,0
2022-12-17T03:41:13.657Z,0
2022-12-17T03:55:13.671Z,0
2022-12-17T04:09:13.682Z,0
2022-12-17T04:23:13.677Z,0
2022-12-17T04:37:13.682Z,0
2022-12-17T04:51:13.696Z,0
2022-12-17T05:05:13.694Z,0.6
2022-12-17T05:19:13.701Z,0.8
2022-12-17T05:33:13.697Z,0.6
2022-12-17T05:47:13.700Z,0
2022-12-17T06:01:13.767Z,0.2
2022-12-17T06:15:13.714Z,0.6
2022-12-17T06:29:13.721Z,0
2022-12-17T06:44:13.742Z,0
2022-12-17T06:59:13.739Z,0
2022-12-17T07:14:13.745Z,0.6
2022-12-17T07:29:13.738Z,1.5
2022-12-17T07:44:13.748Z,0.6
2022-12-17T07:59:13.751Z,0.6
2022-12-17T08:14:13.916Z,0
2022-12-17T08:29:13.845Z,0
2022-12-17T08:44:13.868Z,0
2022-12-17T08:59:13.855Z,0.2
2022-12-17T09:14:13.860Z,0.6
2022-12-17T09:29:13.860Z,0
2022-12-17T09:44:13.904Z,0
2022-12-17T09:59:13.909Z,0
2022-12-17T10:14:13.901Z,0
2022-12-17T10:29:14.016Z,0
2022-12-17T10:44:13.937Z,0
2022-12-17T10:59:13.953Z,0
2022-12-17T11:14:13.951Z,0
2022-12-17T11:29:13.942Z,0
2022-12-17T11:44:13.943Z,0
2022-12-17T11:59:13.958Z,0
2022-12-17T12:15:13.947Z,0.8
2022-12-17T12:31:13.982Z,0
2022-12-17T12:46:14.028Z,0
2022-12-17T13:01:14.180Z,0
2022-12-17T13:16:14.073Z,0
2022-12-17T13:31:14.052Z,0
2022-12-17T13:46:14.065Z,0
2022-12-17T14:01:14.215Z,0
2022-12-17T14:16:14.150Z,0
2022-12-17T14:31:26.943Z,0
2022-12-17T14:46:14.191Z,0
2022-12-17T15:02:14.241Z,0
2022-12-17T15:17:14.117Z,0
2022-12-17T15:32:14.115Z,0
2022-12-17T15:47:14.132Z,0
2022-12-17T16:02:14.243Z,0
2022-12-17T16:16:14.220Z,0.9
2022-12-17T16:30:14.115Z,0.8
2022-12-17T16:44:14.123Z,0
2022-12-17T16:58:14.174Z,0
2022-12-17T17:12:14.162Z,0
2022-12-17T17:26:14.176Z,0
2022-12-17T17:42:14.197Z,0
2022-12-17T17:56:14.229Z,1.0
2022-12-17T18:10:14.200Z,1.5
2022-12-17T18:24:14.209Z,1.2
2022-12-17T18:38:14.224Z,1.6
2022-12-17T18:52:16.916Z,1.5
2022-12-17T19:06:14.257Z,1.5
2022-12-17T19:20:14.268Z,1.5
2022-12-17T19:34:14.302Z,0.2
2022-12-17T19:48:14.285Z,0
2022-12-17T20:02:14.450Z,0.6
2022-12-17T20:16:14.342Z,0
2022-12-17T20:40:14.303Z,1.1
2022-12-17T20:54:14.346Z,0.8
2022-12-17T21:08:14.339Z,0.8
2022-12-17T21:22:14.317Z,1.4
2022-12-17T21:36:14.407Z,0.8
2022-12-17T21:50:14.370Z,0.9
2022-12-17T22:04:14.443Z,0.4
2022-12-17T22:19:14.386Z,1.0
2022-12-17T22:33:20.902Z,1.1
2022-12-17T22:47:14.401Z,1.1
2022-12-17T23:01:18.255Z,1.1
2022-12-17T23:15:14.431Z,0.6
2022-12-17T23:29:18.997Z,0
2022-12-17T23:43:17.573Z,0.2
2022-12-17T23:57:14.464Z,0
